createdAt,value
2022-12-23T00:01:59.495Z,4.10
2022-12-23T00:04:28.549Z,4.78
2022-12-23T00:06:56.092Z,4.80
2022-12-23T00:09:23.743Z,4.93
2022-12-23T00:12:10.123Z,5.15
2022-12-23T00:14:55.219Z,5.03
2022-12-23T00:17:23.434Z,5.10
2022-12-23T00:19:52.427Z,4.55
2022-12-23T00:22:20.046Z,5.50
2022-12-23T00:24:48.892Z,5.28
2022-12-23T00:27:17.404Z,5.27
2022-12-23T00:29:45.076Z,5.20
2022-12-23T00:32:12.891Z,5.30
2022-12-23T00:34:40.496Z,5.45
2022-12-23T00:37:09.504Z,4.97
2022-12-23T00:39:55.461Z,5.10
2022-12-23T00:42:40.921Z,4.45
2022-12-23T00:45:16.466Z,5.20
2022-12-23T00:48:01.967Z,3.92
2022-12-23T00:50:29.972Z,3.90
2022-12-23T00:52:59.119Z,3.90
2022-12-23T00:55:26.797Z,3.72
2022-12-23T00:57:54.644Z,3.67
2022-12-23T01:00:44.346Z,3.22
2022-12-23T01:03:30.725Z,3.10
2022-12-23T01:05:59.038Z,3.30
2022-12-23T01:08:28.419Z,2.28
2022-12-23T01:10:56.253Z,3.08
2022-12-23T01:13:24.154Z,3.05
2022-12-23T01:15:51.783Z,2.90
2022-12-23T01:18:19.410Z,2.40
2022-12-23T01:20:47.049Z,2.53
2022-12-23T01:23:18.038Z,2.95
2022-12-23T01:25:48.028Z,2.63
2022-12-23T01:28:15.646Z,2.85
2022-12-23T01:30:43.324Z,3.33
2022-12-23T01:33:15.035Z,2.80
2022-12-23T01:35:42.638Z,3.08
2022-12-23T01:38:10.232Z,3.25
2022-12-23T01:40:37.806Z,2.65
2022-12-23T01:43:05.745Z,2.33
2022-12-23T01:45:33.887Z,2.58
2022-12-23T01:48:03.111Z,2.75
2022-12-23T01:50:32.481Z,2.63
2022-12-23T01:53:07.220Z,2.88
2022-12-23T01:55:37.662Z,2.13
2022-12-23T01:58:09.181Z,2.20
2022-12-23T02:00:54.943Z,1.75
2022-12-23T02:03:40.272Z,1.60
2022-12-23T02:06:26.628Z,1.33
2022-12-23T02:09:11.707Z,1.13
2022-12-23T02:11:57.050Z,1.55
2022-12-23T02:14:48.108Z,1.55
2022-12-23T02:17:18.915Z,1.73
2022-12-23T02:20:08.306Z,2.22
2022-12-23T02:22:47.101Z,2.60
2022-12-23T02:25:37.843Z,2.42
2022-12-23T02:28:14.838Z,2.78
2022-12-23T02:30:46.958Z,2.65
2022-12-23T02:33:20.529Z,2.70
2022-12-23T02:35:51.845Z,3.10
2022-12-23T02:38:24.531Z,3.08
2022-12-23T02:40:56.370Z,3.33
2022-12-23T02:43:27.748Z,2.97
2022-12-23T02:45:59.067Z,3.08
2022-12-23T02:48:32.182Z,2.93
2022-12-23T02:51:01.603Z,2.22
2022-12-23T02:53:36.607Z,2.50
2022-12-23T02:56:06.051Z,2.50
2022-12-23T02:58:35.989Z,2.50
2022-12-23T03:01:07.148Z,2.70
2022-12-23T03:03:36.807Z,3.00
2022-12-23T03:06:11.632Z,2.25
2022-12-23T03:08:41.807Z,2.60
2022-12-23T03:11:11.409Z,2.88
2022-12-23T03:13:49.916Z,2.00
2022-12-23T03:16:22.815Z,2.47
2022-12-23T03:18:55.699Z,1.92
2022-12-23T03:21:25.519Z,2.78
2022-12-23T03:23:56.054Z,2.72
2022-12-23T03:26:27.888Z,3.27
2022-12-23T03:28:56.943Z,2.90
2022-12-23T03:31:27.868Z,2.40
2022-12-23T03:33:58.524Z,2.90
2022-12-23T03:36:30.674Z,2.60
2022-12-23T03:38:58.487Z,2.50
2022-12-23T03:41:28.459Z,2.80
2022-12-23T03:43:58.681Z,3.25
2022-12-23T03:46:31.757Z,2.50
2022-12-23T03:49:01.880Z,2.60
2022-12-23T03:51:32.487Z,2.60
2022-12-23T03:54:00.781Z,2.35
2022-12-23T03:56:29.859Z,2.63
2022-12-23T03:59:00.048Z,2.20
2022-12-23T04:01:35.696Z,2.40
2022-12-23T04:04:10.182Z,2.23
2022-12-23T04:06:40.348Z,2.33
2022-12-23T04:09:08.370Z,2.28
2022-12-23T04:11:36.582Z,1.98
2022-12-23T04:14:04.323Z,2.38
2022-12-23T04:16:33.496Z,2.40
2022-12-23T04:19:01.218Z,2.33
2022-12-23T04:21:30.361Z,1.98
2022-12-23T04:23:57.877Z,2.85
2022-12-23T04:26:25.418Z,2.28
2022-12-23T04:28:53.091Z,2.00
2022-12-23T04:31:20.635Z,2.75
2022-12-23T04:33:49.625Z,3.00
2022-12-23T04:36:17.238Z,2.70
2022-12-23T04:38:45.364Z,2.70
2022-12-23T04:41:13.036Z,2.83
2022-12-23T04:43:40.782Z,2.80
2022-12-23T04:46:08.477Z,2.90
2022-12-23T04:48:36.795Z,3.28
2022-12-23T04:51:05.894Z,2.65
2022-12-23T04:53:33.460Z,2.50
2022-12-23T04:56:01.072Z,2.08
2022-12-23T04:58:28.675Z,1.92
2022-12-23T05:01:02.010Z,2.13
2022-12-23T05:03:29.917Z,2.33
2022-12-23T05:05:57.582Z,2.37
2022-12-23T05:08:26.601Z,2.10
2022-12-23T05:10:54.542Z,2.15
2022-12-23T05:13:22.380Z,2.17
2022-12-23T05:15:50.769Z,2.30
2022-12-23T05:18:18.481Z,1.90
2022-12-23T05:20:46.071Z,2.10
2022-12-23T05:23:13.644Z,1.92
2022-12-23T05:25:51.179Z,2.42
2022-12-23T05:28:19.029Z,1.60
2022-12-23T05:30:46.972Z,2.40
2022-12-23T05:33:15.042Z,2.30
2022-12-23T05:35:42.649Z,1.80
2022-12-23T05:38:10.272Z,1.90
2022-12-23T05:40:37.996Z,2.30
2022-12-23T05:43:07.100Z,2.03
2022-12-23T05:45:36.129Z,2.42
2022-12-23T05:48:03.820Z,2.40
2022-12-23T05:50:31.360Z,2.70
2022-12-23T05:52:58.994Z,2.03
2022-12-23T05:55:27.216Z,1.90
2022-12-23T05:57:55.541Z,2.10
2022-12-23T06:00:25.752Z,1.80
2022-12-23T06:02:54.414Z,1.23
2022-12-23T06:05:22.279Z,1.70
2022-12-23T06:07:49.932Z,1.70
2022-12-23T06:10:17.662Z,2.08
2022-12-23T06:12:45.229Z,1.60
2022-12-23T06:15:13.234Z,1.45
2022-12-23T06:17:42.279Z,1.55
2022-12-23T06:20:17.948Z,1.33
2022-12-23T06:22:48.117Z,1.45
2022-12-23T06:25:15.799Z,1.63
2022-12-23T06:27:43.313Z,1.20
2022-12-23T06:30:11.963Z,1.20
2022-12-23T06:32:40.091Z,1.23
2022-12-23T06:35:09.639Z,0.90
2022-12-23T06:37:37.381Z,1.15
2022-12-23T06:40:05.301Z,1.42
2022-12-23T06:42:32.878Z,1.63
2022-12-23T06:45:00.572Z,1.67
2022-12-23T06:47:28.638Z,1.40
2022-12-23T06:49:56.286Z,1.42
2022-12-23T06:52:25.354Z,1.58
2022-12-23T06:54:52.998Z,1.27
2022-12-23T06:57:20.640Z,1.60
2022-12-23T06:59:48.554Z,1.60
2022-12-23T07:02:17.010Z,1.35
2022-12-23T07:04:44.774Z,1.83
2022-12-23T07:07:12.781Z,0.95
2022-12-23T07:09:41.719Z,1.50
2022-12-23T07:12:09.334Z,1.40
2022-12-23T07:14:37.149Z,1.50
2022-12-23T07:17:04.768Z,1.50
2022-12-23T07:19:32.315Z,1.33
2022-12-23T07:22:00.332Z,1.10
2022-12-23T07:24:28.415Z,1.60
2022-12-23T07:26:57.329Z,1.60
2022-12-23T07:29:25.120Z,1.45
2022-12-23T07:31:53.182Z,1.30
2022-12-23T07:34:20.774Z,1.37
2022-12-23T07:36:48.571Z,1.30
2022-12-23T07:39:17.004Z,0.70
2022-12-23T07:41:46.559Z,1.20
2022-12-23T07:44:16.132Z,0.75
2022-12-23T07:46:44.009Z,0.60
2022-12-23T07:49:11.629Z,0.90
2022-12-23T07:51:39.392Z,0.98
2022-12-23T07:54:07.568Z,0.50
2022-12-23T07:56:35.161Z,0.60
2022-12-23T07:59:02.750Z,0.80
2022-12-23T08:01:31.799Z,0.73
2022-12-23T08:03:59.384Z,0.90
2022-12-23T08:06:27.408Z,1.13
2022-12-23T08:08:55.066Z,1.15
2022-12-23T08:11:23.107Z,1.13
2022-12-23T08:13:52.872Z,1.10
2022-12-23T08:16:20.706Z,1.10
2022-12-23T08:18:49.621Z,1.15
2022-12-23T08:21:19.530Z,1.00
2022-12-23T08:23:48.230Z,1.17
2022-12-23T08:26:16.693Z,1.00
2022-12-23T08:28:45.124Z,1.25
2022-12-23T08:31:13.762Z,1.10
2022-12-23T08:33:43.387Z,0.90
2022-12-23T08:36:19.245Z,1.20
2022-12-23T08:38:50.233Z,0.75
2022-12-23T08:41:20.236Z,0.57
2022-12-23T08:43:47.843Z,0.20
2022-12-23T08:46:15.554Z,0.30
2022-12-23T08:48:48.856Z,0.50
2022-12-23T08:51:19.595Z,0.43
2022-12-23T08:53:47.765Z,0.45
2022-12-23T08:56:17.915Z,0.28
2022-12-23T08:58:46.448Z,0.20
2022-12-23T09:01:15.728Z,0.47
2022-12-23T09:03:43.554Z,0.50
2022-12-23T09:06:12.860Z,0.40
2022-12-23T09:08:43.486Z,0.47
2022-12-23T09:11:11.433Z,0.30
2022-12-23T09:13:39.032Z,0.40
2022-12-23T09:16:07.355Z,0.30
2022-12-23T09:18:35.170Z,0.35
2022-12-23T09:21:04.662Z,0.40
2022-12-23T09:23:32.800Z,0.40
2022-12-23T09:26:06.709Z,0.30
2022-12-23T09:28:34.690Z,0.43
2022-12-23T09:31:07.408Z,0.38
2022-12-23T09:33:35.580Z,0.50
2022-12-23T09:36:03.227Z,0.50
2022-12-23T09:38:30.801Z,0.60
2022-12-23T09:41:03.073Z,0.52
2022-12-23T09:43:37.902Z,0.80
2022-12-23T09:46:10.083Z,0.65
2022-12-23T09:48:40.215Z,0.68
2022-12-23T09:51:08.160Z,0.77
2022-12-23T09:53:43.540Z,0.90
2022-12-23T09:56:16.706Z,0.82
2022-12-23T09:58:48.341Z,1.05
2022-12-23T10:01:19.878Z,0.75
2022-12-23T10:04:08.707Z,1.03
2022-12-23T10:06:45.877Z,1.50
2022-12-23T10:09:15.048Z,1.10
2022-12-23T10:11:46.986Z,1.30
2022-12-23T10:14:21.637Z,1.30
2022-12-23T10:16:51.245Z,1.43
2022-12-23T10:19:21.776Z,1.63
2022-12-23T10:21:50.154Z,1.48
2022-12-23T10:24:21.342Z,1.60
2022-12-23T10:26:52.676Z,1.65
2022-12-23T10:29:22.747Z,1.70
2022-12-23T10:31:58.440Z,1.52
2022-12-23T10:34:36.600Z,1.42
2022-12-23T10:37:08.317Z,1.20
2022-12-23T10:39:38.726Z,1.73
2022-12-23T10:42:09.695Z,1.80
2022-12-23T10:44:47.265Z,1.70
2022-12-23T10:47:19.618Z,1.70
2022-12-23T10:49:54.764Z,1.80
2022-12-23T10:52:24.521Z,1.88
2022-12-23T10:54:52.351Z,1.90
2022-12-23T10:57:21.092Z,1.80
2022-12-23T10:59:50.365Z,1.60
2022-12-23T11:02:30.318Z,1.60
2022-12-23T11:04:58.128Z,1.42
2022-12-23T11:07:43.982Z,1.37
2022-12-23T11:10:18.297Z,0.98
2022-12-23T11:12:47.310Z,1.15
2022-12-23T11:15:32.288Z,1.10
2022-12-23T11:18:04.535Z,1.60
2022-12-23T11:20:32.599Z,1.90
2022-12-23T11:23:02.326Z,1.15
2022-12-23T11:25:31.656Z,1.58
2022-12-23T11:28:00.325Z,1.13
2022-12-23T11:30:29.406Z,1.50
2022-12-23T11:32:58.784Z,1.27
2022-12-23T11:35:27.608Z,1.77
2022-12-23T11:37:56.638Z,1.08
2022-12-23T11:40:26.695Z,0.95
2022-12-23T11:42:57.189Z,1.92
2022-12-23T11:45:26.882Z,1.00
2022-12-23T11:47:54.562Z,1.50
2022-12-23T11:50:27.996Z,1.25
2022-12-23T11:52:56.757Z,1.85
2022-12-23T11:55:25.196Z,1.50
2022-12-23T11:57:53.468Z,1.10
2022-12-23T12:00:25.625Z,1.10
2022-12-23T12:02:54.459Z,1.88
2022-12-23T12:05:23.708Z,1.75
2022-12-23T12:07:53.074Z,1.80
2022-12-23T12:10:23.183Z,2.17
2022-12-23T12:12:54.839Z,1.40
2022-12-23T12:15:34.343Z,1.30
2022-12-23T12:18:02.512Z,1.42
2022-12-23T12:20:31.377Z,2.03
2022-12-23T12:23:02.034Z,1.60
2022-12-23T12:25:39.666Z,1.30
2022-12-23T12:28:18.203Z,1.23
2022-12-23T12:30:50.371Z,1.88
2022-12-23T12:33:20.330Z,1.65
2022-12-23T12:35:53.631Z,1.30
2022-12-23T12:38:25.990Z,1.90
2022-12-23T12:40:56.812Z,1.80
2022-12-23T12:43:27.695Z,2.17
2022-12-23T12:46:02.064Z,1.83
2022-12-23T12:48:33.739Z,1.57
2022-12-23T12:51:04.059Z,1.25
2022-12-23T12:53:33.356Z,1.58
2022-12-23T12:56:03.468Z,1.50
2022-12-23T12:58:31.056Z,1.58
2022-12-23T13:01:04.673Z,1.37
2022-12-23T13:03:46.778Z,1.63
2022-12-23T13:06:19.829Z,1.52
2022-12-23T13:08:56.588Z,1.63
2022-12-23T13:11:31.918Z,1.58
2022-12-23T13:14:01.841Z,1.97
2022-12-23T13:16:33.780Z,1.42
2022-12-23T13:19:04.391Z,1.10
2022-12-23T13:21:34.470Z,0.80
2022-12-23T13:24:08.939Z,1.08
2022-12-23T13:26:50.987Z,1.50
2022-12-23T13:29:39.031Z,1.10
2022-12-23T13:32:11.826Z,1.55
2022-12-23T13:34:48.123Z,1.40
2022-12-23T13:37:19.592Z,0.88
2022-12-23T13:39:55.111Z,1.40
2022-12-23T13:42:26.458Z,1.15
2022-12-23T13:44:54.708Z,1.02
2022-12-23T13:47:25.788Z,1.58
2022-12-23T13:49:57.135Z,1.50
2022-12-23T13:52:30.755Z,0.90
2022-12-23T13:55:02.119Z,1.10
2022-12-23T13:57:39.103Z,2.13
2022-12-23T14:00:23.359Z,1.60
2022-12-23T14:02:51.913Z,1.15
2022-12-23T14:05:33.913Z,1.00
2022-12-23T14:08:02.798Z,1.55
2022-12-23T14:10:32.341Z,0.98
2022-12-23T14:13:01.540Z,1.58
2022-12-23T14:15:36.074Z,1.40
2022-12-23T14:18:10.934Z,1.87
2022-12-23T14:20:45.598Z,1.20
2022-12-23T14:23:21.451Z,1.90
2022-12-23T14:25:56.871Z,1.75
2022-12-23T14:28:39.398Z,1.98
2022-12-23T14:31:07.244Z,1.10
2022-12-23T14:33:37.223Z,1.70
2022-12-23T14:36:22.978Z,1.80
2022-12-23T14:39:05.476Z,1.85
2022-12-23T14:41:39.403Z,1.92
2022-12-23T14:44:20.996Z,2.33
2022-12-23T14:46:57.876Z,1.75
2022-12-23T14:49:46.595Z,1.45
2022-12-23T14:52:32.965Z,1.20
2022-12-23T14:55:31.704Z,1.60
2022-12-23T14:58:07.781Z,1.83
2022-12-23T15:00:45.952Z,1.33
2022-12-23T15:03:13.939Z,1.25
2022-12-23T15:05:41.736Z,2.10
2022-12-23T15:08:20.276Z,0.85
2022-12-23T15:10:48.011Z,2.27
2022-12-23T15:13:18.386Z,1.38
2022-12-23T15:15:57.363Z,1.77
2022-12-23T15:18:28.358Z,1.48
2022-12-23T15:20:59.892Z,2.33
2022-12-23T15:23:27.471Z,1.57
2022-12-23T15:25:56.934Z,2.05
2022-12-23T15:28:29.605Z,1.92
2022-12-23T15:30:57.853Z,2.22
2022-12-23T15:34:01.424Z,1.45
2022-12-23T15:36:16.338Z,1.40
2022-12-23T15:38:44.029Z,1.50
2022-12-23T15:41:15.287Z,1.95
2022-12-23T15:43:44.827Z,1.63
2022-12-23T15:46:16.976Z,1.85
2022-12-23T15:48:44.804Z,2.07
2022-12-23T15:51:25.825Z,1.73
2022-12-23T15:54:05.306Z,1.40
2022-12-23T15:56:35.321Z,1.73
2022-12-23T15:59:04.593Z,1.63
2022-12-23T16:01:37.395Z,1.80
2022-12-23T16:04:09.038Z,1.90
2022-12-23T16:06:37.341Z,2.50
2022-12-23T16:09:05.984Z,1.90
2022-12-23T16:11:41.862Z,2.22
2022-12-23T16:14:27.760Z,2.00
2022-12-23T16:17:03.154Z,2.20
2022-12-23T16:19:41.316Z,2.65
2022-12-23T16:22:14.234Z,1.95
2022-12-23T16:24:45.151Z,2.05
2022-12-23T16:27:14.904Z,1.77
2022-12-23T16:29:44.032Z,1.67
2022-12-23T16:32:15.848Z,2.15
2022-12-23T16:34:44.488Z,2.58
2022-12-23T16:37:12.071Z,2.00
2022-12-23T16:39:40.648Z,2.13
2022-12-23T16:42:09.313Z,2.15
2022-12-23T16:44:36.835Z,1.73
2022-12-23T16:47:08.846Z,1.80
2022-12-23T16:49:37.389Z,1.90
2022-12-23T16:52:06.446Z,2.50
2022-12-23T16:54:34.164Z,1.40
2022-12-23T16:57:01.650Z,1.23
2022-12-23T16:59:29.204Z,2.58
2022-12-23T17:02:03.215Z,1.98
2022-12-23T17:04:34.338Z,2.33
2022-12-23T17:07:01.997Z,2.13
2022-12-23T17:09:29.520Z,2.50
2022-12-23T17:11:57.395Z,2.15
2022-12-23T17:14:25.787Z,2.20
2022-12-23T17:16:53.394Z,1.73
2022-12-23T17:19:27.678Z,1.70
2022-12-23T17:24:46.647Z,2.58
2022-12-23T17:27:20.589Z,2.30
2022-12-23T17:29:54.622Z,1.57
2022-12-23T17:32:22.441Z,1.75
2022-12-23T17:34:50.206Z,1.60
2022-12-23T17:37:20.570Z,1.58
2022-12-23T17:39:49.877Z,1.58
2022-12-23T17:42:24.973Z,1.60
2022-12-23T17:44:53.333Z,1.30
2022-12-23T17:47:22.397Z,2.42
2022-12-23T17:49:50.314Z,1.70
2022-12-23T17:52:19.920Z,1.83
2022-12-23T17:54:48.263Z,1.97
2022-12-23T17:57:18.985Z,1.70
2022-12-23T17:59:47.887Z,2.35
2022-12-23T18:02:21.629Z,2.20
2022-12-23T18:04:49.302Z,1.88
2022-12-23T18:07:17.026Z,2.10
2022-12-23T18:09:46.199Z,2.45
2022-12-23T18:12:25.092Z,1.77
2022-12-23T18:14:53.144Z,1.88
2022-12-23T18:17:20.656Z,3.17
2022-12-23T18:19:48.342Z,2.57
2022-12-23T18:22:17.605Z,2.10
2022-12-23T18:24:46.530Z,2.35
2022-12-23T18:27:18.339Z,2.40
2022-12-23T18:29:45.889Z,2.35
2022-12-23T18:32:20.406Z,1.90
2022-12-23T18:34:47.983Z,2.90
2022-12-23T18:37:15.897Z,2.13
2022-12-23T18:39:43.569Z,3.10
2022-12-23T18:42:13.886Z,2.40
2022-12-23T18:44:41.741Z,2.30
2022-12-23T18:47:09.576Z,1.58
2022-12-23T18:49:37.384Z,2.38
2022-12-23T18:52:07.117Z,2.75
2022-12-23T18:54:34.843Z,2.72
2022-12-23T18:57:03.118Z,2.10
2022-12-23T18:59:32.960Z,2.10
2022-12-23T19:02:00.928Z,2.53
2022-12-23T19:04:29.466Z,3.22
2022-12-23T19:06:57.435Z,2.95
2022-12-23T19:09:25.767Z,2.00
2022-12-23T19:11:54.142Z,1.90
2022-12-23T19:14:23.380Z,1.70
2022-12-23T19:16:52.972Z,2.15
2022-12-23T19:19:20.743Z,2.60
2022-12-23T19:21:50.985Z,2.87
2022-12-23T19:24:18.737Z,2.42
2022-12-23T19:26:46.368Z,3.20
2022-12-23T19:29:13.914Z,2.35
2022-12-23T19:31:41.721Z,2.03
2022-12-23T19:34:15.034Z,2.53
2022-12-23T19:36:43.335Z,2.53
2022-12-23T19:39:16.855Z,2.80
2022-12-23T19:41:44.892Z,2.78
2022-12-23T19:44:12.504Z,2.65
2022-12-23T19:46:40.788Z,2.60
2022-12-23T19:49:12.870Z,2.90
2022-12-23T19:51:45.381Z,2.13
2022-12-23T19:54:13.087Z,3.13
2022-12-23T19:56:40.696Z,2.13
2022-12-23T19:59:08.263Z,1.97
2022-12-23T20:01:36.718Z,2.08
2022-12-23T20:04:04.884Z,1.83
2022-12-23T20:06:34.962Z,2.47
2022-12-23T20:09:06.597Z,2.35
2022-12-23T20:11:35.378Z,2.70
2022-12-23T20:14:03.287Z,1.98
2022-12-23T20:16:31.300Z,2.55
2022-12-23T20:18:58.897Z,2.38
2022-12-23T20:21:26.517Z,1.95
2022-12-23T20:23:55.709Z,2.40
2022-12-23T20:26:23.867Z,2.47
2022-12-23T20:28:52.062Z,2.15
2022-12-23T20:31:21.083Z,1.48
2022-12-23T20:33:49.081Z,2.63
2022-12-23T20:36:17.947Z,2.17
2022-12-23T20:38:46.319Z,1.40
2022-12-23T20:41:16.448Z,2.42
2022-12-23T20:43:56.854Z,2.30
2022-12-23T20:46:33.478Z,2.17
2022-12-23T20:49:01.399Z,2.33
2022-12-23T20:51:29.146Z,2.10
2022-12-23T20:53:59.856Z,2.33
2022-12-23T20:56:30.203Z,2.28
2022-12-23T20:59:02.667Z,1.75
2022-12-23T21:01:31.399Z,2.30
2022-12-23T21:04:00.031Z,2.15
2022-12-23T21:06:28.160Z,2.38
2022-12-23T21:08:59.496Z,2.13
2022-12-23T21:11:32.370Z,1.80
2022-12-23T21:14:06.110Z,2.60
2022-12-23T21:16:35.834Z,1.63
2022-12-23T21:19:03.822Z,1.92
2022-12-23T21:21:31.943Z,2.10
2022-12-23T21:24:01.942Z,1.77
2022-12-23T21:26:31.829Z,2.47
2022-12-23T21:29:07.066Z,2.00
2022-12-23T21:31:35.943Z,3.08
2022-12-23T21:34:03.871Z,1.58
2022-12-23T21:36:33.265Z,1.90
2022-12-23T21:39:01.272Z,3.70
2022-12-23T21:41:29.750Z,1.90
2022-12-23T21:43:58.993Z,1.77
2022-12-23T21:46:27.333Z,1.65
2022-12-23T21:48:56.244Z,1.67
2022-12-23T21:51:25.141Z,2.33
2022-12-23T21:53:58.550Z,1.65
2022-12-23T21:56:27.377Z,2.22
2022-12-23T21:58:56.035Z,1.88
2022-12-23T22:01:25.081Z,1.85
2022-12-23T22:03:53.306Z,1.37
2022-12-23T22:06:22.037Z,2.20
2022-12-23T22:08:50.210Z,2.00
2022-12-23T22:11:19.011Z,1.60
2022-12-23T22:13:46.600Z,1.55
2022-12-23T22:16:15.154Z,2.23
2022-12-23T22:18:44.951Z,1.85
2022-12-23T22:21:13.463Z,2.15
2022-12-23T22:23:41.034Z,2.67
2022-12-23T22:26:09.183Z,1.58
2022-12-23T22:28:37.445Z,2.10
2022-12-23T22:31:05.507Z,2.15
2022-12-23T22:33:33.464Z,1.80
2022-12-23T22:36:02.422Z,1.48
2022-12-23T22:38:30.008Z,1.50
2022-12-23T22:40:57.746Z,1.70
2022-12-23T22:43:25.352Z,2.25
2022-12-23T22:45:56.689Z,1.80
2022-12-23T22:48:24.581Z,1.70
2022-12-23T22:50:53.720Z,1.70
2022-12-23T22:53:29.371Z,2.20
2022-12-23T22:55:57.957Z,1.75
2022-12-23T22:58:25.608Z,1.70
2022-12-23T23:00:53.124Z,1.88
2022-12-23T23:03:21.189Z,1.55
2022-12-23T23:05:56.467Z,2.67
2022-12-23T23:08:26.777Z,2.13
2022-12-23T23:10:54.577Z,1.75
2022-12-23T23:13:22.166Z,2.10
2022-12-23T23:15:49.923Z,2.30
2022-12-23T23:18:17.529Z,2.27
2022-12-23T23:20:45.151Z,2.78
2022-12-23T23:23:13.054Z,2.50
2022-12-23T23:25:41.958Z,2.70
2022-12-23T23:28:09.688Z,2.40
2022-12-23T23:30:37.763Z,2.03
2022-12-23T23:33:05.392Z,1.90
2022-12-23T23:35:33.095Z,2.05
2022-12-23T23:38:00.815Z,2.05
2022-12-23T23:40:28.352Z,2.05
2022-12-23T23:42:57.271Z,2.07
2022-12-23T23:45:25.010Z,1.85
2022-12-23T23:47:52.558Z,2.00
2022-12-23T23:50:20.222Z,2.67
2022-12-23T23:52:47.978Z,2.53
2022-12-23T23:55:15.580Z,1.17
2022-12-23T23:57:43.167Z,1.95
